createdAt,value
2023-03-27T00:02:08.295Z,100.00
2023-03-27T00:04:57.167Z,100.00
2023-03-27T00:07:48.487Z,100.00
2023-03-27T00:10:38.246Z,100.00
2023-03-27T00:13:27.167Z,100.00
2023-03-27T00:16:16.266Z,100.00
2023-03-27T00:19:06.430Z,100.00
2023-03-27T00:21:56.290Z,100.00
2023-03-27T00:24:45.665Z,100.00
2023-03-27T00:27:34.554Z,100.00
2023-03-27T00:30:24.528Z,100.00
2023-03-27T00:33:14.853Z,100.00
2023-03-27T00:36:06.189Z,100.00
2023-03-27T00:38:55.457Z,100.00
2023-03-27T00:41:44.526Z,100.00
2023-03-27T00:44:34.922Z,100.00
2023-03-27T00:47:33.974Z,100.00
2023-03-27T00:50:29.700Z,100.00
2023-03-27T00:53:25.788Z,100.00
2023-03-27T00:56:16.809Z,100.00
2023-03-27T00:59:15.481Z,100.00
2023-03-27T01:02:07.353Z,100.00
2023-03-27T01:04:57.782Z,100.00
2023-03-27T01:08:01.500Z,100.00
2023-03-27T01:11:13.221Z,100.00
2023-03-27T01:14:15.539Z,100.00
2023-03-27T01:17:30.240Z,100.00
2023-03-27T01:21:09.632Z,100.00
2023-03-27T01:25:13.099Z,100.00
2023-03-27T01:28:26.423Z,100.00
2023-03-27T01:31:41.885Z,100.00
2023-03-27T01:35:19.206Z,100.00
2023-03-27T01:39:00.325Z,100.00
2023-03-27T01:42:02.001Z,100.00
2023-03-27T01:45:02.472Z,100.00
2023-03-27T01:48:01.279Z,100.00
2023-03-27T01:50:56.758Z,100.00
2023-03-27T01:53:53.592Z,100.00
2023-03-27T01:56:53.516Z,100.00
2023-03-27T01:59:50.052Z,100.00
2023-03-27T02:02:42.978Z,100.00
2023-03-27T02:05:41.349Z,100.00
2023-03-27T02:08:37.645Z,100.00
2023-03-27T02:11:41.124Z,100.00
2023-03-27T02:14:40.225Z,100.00
2023-03-27T02:17:34.064Z,100.00
2023-03-27T02:20:24.148Z,100.00
2023-03-27T02:23:13.967Z,100.00
2023-03-27T02:26:02.904Z,100.00
2023-03-27T02:29:27.531Z,100.00
2023-03-27T02:32:38.267Z,100.00
2023-03-27T02:35:47.202Z,100.00
2023-03-27T02:38:44.878Z,100.00
2023-03-27T02:41:42.396Z,100.00
2023-03-27T02:45:08.200Z,100.00
2023-03-27T02:48:08.092Z,100.00
2023-03-27T02:51:04.235Z,100.00
2023-03-27T02:53:59.168Z,100.00
2023-03-27T02:56:55.423Z,100.00
2023-03-27T02:59:56.426Z,100.00
2023-03-27T03:02:47.621Z,100.00
2023-03-27T03:05:39.292Z,100.00
2023-03-27T03:08:30.384Z,100.00
2023-03-27T03:11:23.424Z,100.00
2023-03-27T03:14:12.441Z,100.00
2023-03-27T03:17:01.916Z,100.00
2023-03-27T03:19:51.343Z,100.00
2023-03-27T03:22:42.189Z,100.00
2023-03-27T03:25:31.691Z,100.00
2023-03-27T03:28:20.779Z,100.00
2023-03-27T03:33:59.795Z,100.00
2023-03-27T03:36:50.334Z,100.00
2023-03-27T03:39:46.838Z,100.00
2023-03-27T03:42:37.972Z,100.00
2023-03-27T03:45:26.990Z,100.00
2023-03-27T03:48:16.319Z,100.00
2023-03-27T03:51:06.221Z,100.00
2023-03-27T03:53:55.411Z,100.00
2023-03-27T03:56:45.627Z,100.00
2023-03-27T03:59:34.791Z,100.00
2023-03-27T04:02:46.707Z,100.00
2023-03-27T04:05:39.147Z,100.00
2023-03-27T04:08:28.668Z,100.00
2023-03-27T04:11:26.471Z,100.00
2023-03-27T04:14:35.090Z,100.00
2023-03-27T04:17:29.136Z,100.00
2023-03-27T04:20:20.231Z,100.00
2023-03-27T04:23:09.838Z,100.00
2023-03-27T04:26:03.932Z,100.00
2023-03-27T04:29:31.877Z,100.00
2023-03-27T04:32:22.135Z,100.00
2023-03-27T04:35:29.890Z,100.00
2023-03-27T04:38:31.617Z,100.00
2023-03-27T04:41:22.367Z,100.00
2023-03-27T04:44:11.409Z,100.00
2023-03-27T04:47:03.767Z,100.00
2023-03-27T04:49:54.928Z,100.00
2023-03-27T04:52:50.573Z,100.00
2023-03-27T04:55:40.998Z,100.00
2023-03-27T04:58:31.138Z,100.00
2023-03-27T05:01:21.408Z,100.00
2023-03-27T05:04:33.448Z,100.00
2023-03-27T05:07:37.654Z,100.00
2023-03-27T05:10:27.911Z,100.00
2023-03-27T05:13:16.913Z,100.00
2023-03-27T05:16:09.188Z,100.00
2023-03-27T05:19:04.511Z,100.00
2023-03-27T05:22:01.327Z,100.00
2023-03-27T05:24:51.663Z,100.00
2023-03-27T05:27:46.865Z,100.00
2023-03-27T05:30:36.856Z,100.00
2023-03-27T05:33:37.853Z,100.00
2023-03-27T05:36:30.792Z,100.00
2023-03-27T05:39:20.148Z,100.00
2023-03-27T05:42:10.988Z,100.00
2023-03-27T05:45:00.068Z,100.00
2023-03-27T05:47:52.023Z,100.00
2023-03-27T05:50:41.690Z,100.00
2023-03-27T05:53:40.279Z,100.00
2023-03-27T05:56:40.859Z,100.00
2023-03-27T05:59:31.286Z,100.00
2023-03-27T06:02:34.390Z,100.00
2023-03-27T06:05:29.874Z,100.00
2023-03-27T06:08:19.396Z,100.00
2023-03-27T06:11:13.496Z,100.00
2023-03-27T06:14:11.492Z,100.00
2023-03-27T06:17:22.682Z,100.00
2023-03-27T06:20:16.631Z,100.00
2023-03-27T06:23:13.036Z,100.00
2023-03-27T06:26:02.448Z,100.00
2023-03-27T06:28:52.824Z,100.00
2023-03-27T06:31:42.010Z,100.00
2023-03-27T06:34:36.706Z,100.00
2023-03-27T06:37:55.828Z,100.00
2023-03-27T06:40:47.604Z,100.00
2023-03-27T06:43:36.913Z,100.00
2023-03-27T06:46:45.222Z,100.00
2023-03-27T06:49:56.824Z,100.00
2023-03-27T06:52:48.225Z,100.00
2023-03-27T06:55:57.291Z,100.00
2023-03-27T06:58:47.740Z,100.00
2023-03-27T07:01:37.230Z,100.00
2023-03-27T07:04:57.698Z,100.00
2023-03-27T07:08:08.144Z,100.00
2023-03-27T07:11:12.152Z,100.00
2023-03-27T07:14:30.474Z,100.00
2023-03-27T07:17:19.349Z,100.00
2023-03-27T07:20:14.188Z,100.00
2023-03-27T07:23:05.707Z,100.00
2023-03-27T07:26:15.197Z,100.00
2023-03-27T07:29:23.684Z,100.00
2023-03-27T07:32:29.699Z,100.00
2023-03-27T07:35:24.666Z,100.00
2023-03-27T07:38:51.081Z,100.00
2023-03-27T07:41:46.450Z,100.00
2023-03-27T07:44:43.731Z,100.00
2023-03-27T07:47:32.738Z,100.00
2023-03-27T07:50:22.862Z,100.00
2023-03-27T07:53:33.619Z,100.00
2023-03-27T07:56:27.090Z,100.00
2023-03-27T07:59:38.456Z,100.00
2023-03-27T08:02:34.662Z,100.00
2023-03-27T08:05:23.588Z,100.00
2023-03-27T08:08:26.649Z,100.00
2023-03-27T08:11:30.417Z,100.00
2023-03-27T08:14:26.122Z,100.00
2023-03-27T08:17:19.926Z,100.00
2023-03-27T08:20:15.216Z,100.00
2023-03-27T08:23:09.726Z,100.00
2023-03-27T08:26:19.092Z,100.00
2023-03-27T08:29:19.392Z,100.00
2023-03-27T08:32:11.890Z,100.00
2023-03-27T08:35:03.836Z,100.00
2023-03-27T08:37:53.986Z,100.00
2023-03-27T08:41:07.243Z,100.00
2023-03-27T08:44:04.083Z,100.00
2023-03-27T08:46:59.090Z,100.00
2023-03-27T08:49:59.118Z,100.00
2023-03-27T08:53:15.758Z,100.00
2023-03-27T08:56:10.155Z,100.00
2023-03-27T08:59:02.780Z,100.00
2023-03-27T09:02:04.328Z,100.00
2023-03-27T09:05:04.949Z,100.00
2023-03-27T09:08:10.324Z,100.00
2023-03-27T09:11:09.362Z,100.00
2023-03-27T09:14:23.725Z,100.00
2023-03-27T09:17:21.218Z,100.00
2023-03-27T09:20:20.371Z,100.00
2023-03-27T09:23:21.832Z,100.00
2023-03-27T09:26:36.652Z,100.00
2023-03-27T09:29:35.230Z,100.00
2023-03-27T09:32:43.584Z,100.00
2023-03-27T09:35:38.724Z,100.00
2023-03-27T09:38:36.479Z,100.00
2023-03-27T09:41:34.326Z,100.00
2023-03-27T09:44:28.061Z,100.00
2023-03-27T09:47:28.709Z,100.00
2023-03-27T09:50:27.727Z,100.00
2023-03-27T09:53:36.410Z,100.00
2023-03-27T09:56:42.513Z,100.00
2023-03-27T09:59:37.375Z,100.00
2023-03-27T10:02:34.725Z,100.00
2023-03-27T10:05:25.188Z,100.00
2023-03-27T10:08:38.869Z,100.00
2023-03-27T10:11:37.429Z,100.00
2023-03-27T10:14:39.065Z,100.00
2023-03-27T10:17:36.755Z,100.00
2023-03-27T10:20:32.691Z,100.00
2023-03-27T10:23:28.116Z,100.00
2023-03-27T10:26:22.699Z,100.00
2023-03-27T10:29:26.597Z,100.00
2023-03-27T10:32:15.687Z,100.00
2023-03-27T10:35:30.397Z,100.00
2023-03-27T10:38:36.475Z,100.00
2023-03-27T10:41:53.404Z,100.00
2023-03-27T10:44:44.914Z,100.00
2023-03-27T10:47:36.014Z,100.00
2023-03-27T10:50:34.294Z,100.00
2023-03-27T10:53:37.464Z,100.00
2023-03-27T10:56:36.399Z,100.00
2023-03-27T10:59:41.505Z,95.13
2023-03-27T11:02:47.660Z,99.24
2023-03-27T11:05:44.274Z,100.00
2023-03-27T11:08:58.339Z,100.00
2023-03-27T11:11:57.145Z,100.00
2023-03-27T11:14:55.110Z,100.00
2023-03-27T11:17:56.726Z,86.02
2023-03-27T11:21:12.952Z,83.15
2023-03-27T11:24:35.041Z,86.65
2023-03-27T11:27:39.520Z,100.00
2023-03-27T11:30:44.924Z,100.00
2023-03-27T11:33:43.547Z,100.00
2023-03-27T11:36:48.437Z,100.00
2023-03-27T11:40:06.942Z,93.65
2023-03-27T11:42:55.998Z,92.89
2023-03-27T11:46:00.436Z,99.62
2023-03-27T11:49:10.893Z,100.00
2023-03-27T11:52:15.724Z,100.00
2023-03-27T11:55:26.002Z,100.00
2023-03-27T11:58:30.712Z,100.00
2023-03-27T12:01:28.071Z,100.00
2023-03-27T12:04:46.007Z,100.00
2023-03-27T12:08:03.244Z,100.00
2023-03-27T12:10:58.103Z,100.00
2023-03-27T12:14:40.503Z,92.20
2023-03-27T12:18:01.264Z,80.00
2023-03-27T12:21:23.978Z,84.20
2023-03-27T12:24:33.970Z,90.67
2023-03-27T12:28:06.668Z,90.02
2023-03-27T12:31:20.362Z,100.00
2023-03-27T12:34:37.387Z,100.00
2023-03-27T12:37:31.879Z,100.00
2023-03-27T12:40:32.961Z,100.00
2023-03-27T12:43:31.577Z,100.00
2023-03-27T12:46:41.232Z,100.00
2023-03-27T12:49:57.048Z,100.00
2023-03-27T12:52:53.182Z,100.00
2023-03-27T12:55:46.874Z,100.00
2023-03-27T12:58:55.851Z,100.00
2023-03-27T13:02:28.728Z,100.00
2023-03-27T13:05:47.791Z,100.00
2023-03-27T13:09:08.892Z,100.00
2023-03-27T13:12:33.339Z,100.00
2023-03-27T13:15:44.953Z,100.00
2023-03-27T13:19:12.609Z,100.00
2023-03-27T13:22:37.120Z,100.00
2023-03-27T13:25:49.210Z,100.00
2023-03-27T13:28:40.141Z,100.00
2023-03-27T13:32:30.820Z,100.00
2023-03-27T13:36:05.634Z,100.00
2023-03-27T13:39:22.347Z,100.00
2023-03-27T13:42:23.554Z,100.00
2023-03-27T13:45:22.091Z,100.00
2023-03-27T13:49:11.407Z,100.00
2023-03-27T13:52:57.573Z,100.00
2023-03-27T13:56:35.173Z,100.00
2023-03-27T14:00:07.216Z,95.18
2023-03-27T14:03:45.435Z,100.00
2023-03-27T14:07:31.900Z,100.00
2023-03-27T14:10:59.015Z,100.00
2023-03-27T14:14:18.469Z,100.00
2023-03-27T14:17:49.504Z,100.00
2023-03-27T14:20:45.396Z,100.00
2023-03-27T14:23:48.279Z,100.00
2023-03-27T14:26:59.546Z,100.00
2023-03-27T14:30:07.872Z,100.00
2023-03-27T14:33:09.851Z,100.00
2023-03-27T14:36:05.621Z,100.00
2023-03-27T14:39:03.104Z,100.00
2023-03-27T14:42:04.284Z,100.00
2023-03-27T14:45:20.587Z,100.00
2023-03-27T14:48:25.924Z,100.00
2023-03-27T14:51:20.204Z,100.00
2023-03-27T14:54:19.520Z,100.00
2023-03-27T14:57:16.728Z,100.00
2023-03-27T15:00:23.475Z,100.00
2023-03-27T15:03:19.041Z,100.00
2023-03-27T15:06:16.927Z,100.00
2023-03-27T15:09:19.013Z,100.00
2023-03-27T15:12:25.001Z,100.00
2023-03-27T15:15:31.666Z,100.00
2023-03-27T15:18:31.274Z,100.00
2023-03-27T15:21:34.722Z,100.00
2023-03-27T15:24:39.927Z,100.00
2023-03-27T15:27:33.333Z,100.00
2023-03-27T15:30:31.951Z,100.00
2023-03-27T15:33:34.516Z,100.00
2023-03-27T15:36:28.612Z,100.00
2023-03-27T15:39:22.641Z,100.00
2023-03-27T15:42:16.212Z,100.00
2023-03-27T15:45:07.130Z,100.00
2023-03-27T15:48:06.632Z,100.00
2023-03-27T15:50:57.211Z,100.00
2023-03-27T15:53:49.479Z,100.00
2023-03-27T15:56:44.548Z,100.00
2023-03-27T15:59:35.142Z,100.00
2023-03-27T16:02:41.746Z,100.00
2023-03-27T16:05:32.335Z,100.00
2023-03-27T16:08:32.487Z,100.00
2023-03-27T16:11:43.463Z,100.00
2023-03-27T16:14:43.992Z,100.00
2023-03-27T16:17:40.521Z,100.00
2023-03-27T16:20:42.128Z,100.00
2023-03-27T16:23:31.176Z,100.00
2023-03-27T16:26:27.197Z,100.00
2023-03-27T16:29:17.441Z,100.00
2023-03-27T16:32:06.936Z,100.00
2023-03-27T16:34:55.769Z,100.00
2023-03-27T16:37:46.481Z,100.00
2023-03-27T16:40:35.441Z,100.00
2023-03-27T16:43:24.397Z,100.00
2023-03-27T16:46:21.960Z,100.00
2023-03-27T16:49:14.073Z,100.00
2023-03-27T16:52:03.223Z,100.00
2023-03-27T16:54:53.840Z,100.00
2023-03-27T16:57:43.128Z,100.00
2023-03-27T17:00:32.223Z,100.00
2023-03-27T17:03:21.304Z,100.00
2023-03-27T17:06:12.731Z,100.00
2023-03-27T17:09:01.699Z,100.00
2023-03-27T17:11:51.909Z,100.00
2023-03-27T17:14:41.031Z,100.00
2023-03-27T17:17:30.502Z,100.00
2023-03-27T17:20:19.748Z,100.00
2023-03-27T17:23:08.872Z,100.00
2023-03-27T17:26:02.051Z,100.00
2023-03-27T17:28:52.369Z,100.00
2023-03-27T17:31:41.523Z,100.00
2023-03-27T17:34:30.766Z,100.00
2023-03-27T17:37:19.985Z,100.00
2023-03-27T17:40:12.481Z,100.00
2023-03-27T17:43:01.826Z,100.00
2023-03-27T17:45:52.151Z,100.00
2023-03-27T17:48:42.732Z,100.00
2023-03-27T17:51:34.264Z,100.00
2023-03-27T17:54:23.346Z,100.00
2023-03-27T17:57:13.371Z,100.00
2023-03-27T18:00:03.163Z,100.00
2023-03-27T18:03:02.888Z,100.00
2023-03-27T18:05:52.294Z,100.00
2023-03-27T18:08:42.139Z,100.00
2023-03-27T18:11:31.409Z,100.00
2023-03-27T18:14:20.322Z,100.00
2023-03-27T18:17:09.374Z,100.00
2023-03-27T18:19:59.748Z,100.00
2023-03-27T18:22:49.221Z,100.00
2023-03-27T18:25:41.948Z,100.00
2023-03-27T18:28:30.879Z,100.00
2023-03-27T18:31:20.513Z,100.00
2023-03-27T18:34:10.865Z,100.00
2023-03-27T18:37:01.651Z,100.00
2023-03-27T18:39:51.707Z,100.00
2023-03-27T18:42:43.889Z,100.00
2023-03-27T18:45:32.803Z,100.00
2023-03-27T18:48:21.669Z,100.00
2023-03-27T18:51:11.115Z,100.00
2023-03-27T18:54:01.298Z,100.00
2023-03-27T18:56:51.980Z,100.00
2023-03-27T18:59:40.952Z,100.00
2023-03-27T19:02:30.423Z,100.00
2023-03-27T19:05:19.641Z,100.00
2023-03-27T19:08:08.727Z,100.00
2023-03-27T19:10:59.226Z,100.00
2023-03-27T19:14:06.968Z,100.00
2023-03-27T19:17:14.999Z,100.00
2023-03-27T19:20:24.944Z,100.00
2023-03-27T19:23:37.275Z,100.00
2023-03-27T19:26:27.644Z,100.00
2023-03-27T19:29:17.245Z,100.00
2023-03-27T19:32:06.526Z,100.00
2023-03-27T19:34:56.009Z,100.00
2023-03-27T19:37:45.089Z,100.00
2023-03-27T19:40:34.140Z,100.00
2023-03-27T19:43:24.782Z,100.00
2023-03-27T19:46:16.469Z,100.00
2023-03-27T19:49:07.804Z,100.00
2023-03-27T19:52:16.674Z,100.00
2023-03-27T19:55:06.988Z,100.00
2023-03-27T19:57:56.159Z,100.00
2023-03-27T20:00:50.780Z,100.00
2023-03-27T20:03:40.288Z,100.00
2023-03-27T20:06:29.218Z,100.00
2023-03-27T20:09:19.003Z,100.00
2023-03-27T20:12:11.244Z,100.00
2023-03-27T20:15:10.973Z,100.00
2023-03-27T20:18:06.566Z,100.00
2023-03-27T20:20:56.164Z,100.00
2023-03-27T20:23:45.094Z,100.00
2023-03-27T20:26:48.009Z,100.00
2023-03-27T20:29:40.050Z,100.00
2023-03-27T20:32:29.143Z,100.00
2023-03-27T20:35:24.376Z,100.00
2023-03-27T20:38:14.078Z,100.00
2023-03-27T20:41:05.973Z,100.00
2023-03-27T20:43:54.979Z,100.00
2023-03-27T20:46:47.827Z,100.00
2023-03-27T20:49:41.286Z,100.00
2023-03-27T20:52:32.274Z,100.00
2023-03-27T20:55:33.674Z,100.00
2023-03-27T20:58:25.065Z,100.00
2023-03-27T21:01:14.560Z,100.00
2023-03-27T21:04:03.574Z,100.00
2023-03-27T21:06:54.821Z,100.00
2023-03-27T21:09:45.309Z,100.00
2023-03-27T21:12:34.317Z,100.00
2023-03-27T21:15:25.914Z,100.00
2023-03-27T21:18:15.098Z,100.00
2023-03-27T21:21:04.780Z,100.00
2023-03-27T21:23:54.251Z,100.00
2023-03-27T21:26:44.728Z,100.00
2023-03-27T21:29:33.711Z,100.00
2023-03-27T21:32:22.834Z,100.00
2023-03-27T21:35:11.956Z,100.00
2023-03-27T21:38:01.279Z,100.00
2023-03-27T21:40:50.268Z,100.00
2023-03-27T21:43:40.714Z,100.00
2023-03-27T21:46:29.944Z,100.00
2023-03-27T21:49:18.950Z,100.00
2023-03-27T21:52:08.035Z,100.00
2023-03-27T21:55:02.962Z,100.00
2023-03-27T21:57:52.468Z,100.00
2023-03-27T22:00:45.425Z,100.00
2023-03-27T22:03:37.000Z,100.00
2023-03-27T22:06:25.976Z,100.00
2023-03-27T22:09:14.841Z,100.00
2023-03-27T22:12:05.801Z,100.00
2023-03-27T22:14:54.668Z,100.00
2023-03-27T22:17:45.389Z,100.00
2023-03-27T22:20:34.409Z,100.00
2023-03-27T22:23:23.319Z,100.00
2023-03-27T22:26:13.024Z,100.00
2023-03-27T22:29:02.155Z,100.00
2023-03-27T22:31:51.836Z,100.00
2023-03-27T22:34:42.212Z,100.00
2023-03-27T22:37:31.119Z,100.00
2023-03-27T22:40:20.463Z,100.00
2023-03-27T22:43:09.374Z,100.00
2023-03-27T22:46:05.441Z,100.00
2023-03-27T22:48:59.037Z,100.00
2023-03-27T22:51:49.334Z,100.00
2023-03-27T22:54:38.158Z,100.00
2023-03-27T22:57:27.067Z,100.00
2023-03-27T23:00:17.931Z,100.00
2023-03-27T23:03:07.132Z,100.00
2023-03-27T23:05:57.092Z,100.00
2023-03-27T23:08:49.734Z,100.00
2023-03-27T23:11:38.976Z,100.00
2023-03-27T23:14:28.044Z,100.00
2023-03-27T23:17:17.057Z,100.00
2023-03-27T23:20:07.070Z,100.00
2023-03-27T23:22:57.458Z,100.00
2023-03-27T23:25:47.883Z,100.00
2023-03-27T23:28:39.570Z,100.00
2023-03-27T23:31:28.708Z,100.00
2023-03-27T23:34:17.616Z,100.00
2023-03-27T23:37:06.757Z,100.00
2023-03-27T23:39:56.311Z,100.00
2023-03-27T23:42:46.539Z,100.00
2023-03-27T23:45:35.391Z,100.00
2023-03-27T23:48:24.408Z,100.00
2023-03-27T23:51:16.097Z,100.00
2023-03-27T23:54:05.170Z,100.00
2023-03-27T23:56:54.022Z,100.00
2023-03-27T23:59:44.416Z,100.00
